createdAt,value
2023-05-10T00:01:48.107Z,100694.13
2023-05-10T00:04:28.109Z,100690.13
2023-05-10T00:07:09.335Z,100691.19
2023-05-10T00:09:36.025Z,100696.63
2023-05-10T00:12:03.028Z,100681.88
2023-05-10T00:14:31.867Z,100675.97
2023-05-10T00:16:58.657Z,100675.19
2023-05-10T00:19:25.398Z,100675.09
2023-05-10T00:21:53.273Z,100670.56
2023-05-10T00:24:20.248Z,100676.38
2023-05-10T00:26:54.619Z,100655.16
2023-05-10T00:29:21.269Z,100657.44
2023-05-10T00:31:51.341Z,100646.47
2023-05-10T00:34:18.256Z,100668.38
2023-05-10T00:36:47.151Z,100663.84
2023-05-10T00:39:16.993Z,100667.19
2023-05-10T00:42:00.691Z,100654.84
2023-05-10T00:44:29.935Z,100655.97
2023-05-10T00:46:56.639Z,100655.97
2023-05-10T00:49:25.215Z,100648.56
2023-05-10T00:52:09.150Z,100650.94
2023-05-10T00:54:39.119Z,100648.59
2023-05-10T00:57:05.839Z,100648.28
2023-05-10T00:59:33.285Z,100635.72
2023-05-10T01:02:00.171Z,100647.31
2023-05-10T01:04:26.988Z,100645.19
2023-05-10T01:06:54.769Z,100637.97
2023-05-10T01:09:36.099Z,100636.09
2023-05-10T01:12:04.251Z,100640.19
2023-05-10T01:14:44.410Z,100627.41
2023-05-10T01:17:23.833Z,100636.09
2023-05-10T01:19:53.071Z,100620.72
2023-05-10T01:22:41.732Z,100637.94
2023-05-10T01:25:26.640Z,100634.03
2023-05-10T01:27:59.100Z,100629.75
2023-05-10T01:30:42.359Z,100633.84
2023-05-10T01:33:17.235Z,100626.72
2023-05-10T01:36:12.971Z,100626.94
2023-05-10T01:38:48.521Z,100623.97
2023-05-10T01:41:25.081Z,100625.78
2023-05-10T01:44:19.301Z,100625.78
2023-05-10T01:46:54.116Z,100622.84
2023-05-10T01:49:44.816Z,100624.84
2023-05-10T01:52:21.975Z,100617.50
2023-05-10T01:55:02.276Z,100623.38
2023-05-10T01:57:35.120Z,100612.88
2023-05-10T02:00:08.391Z,100620.16
2023-05-10T02:02:43.430Z,100630.72
2023-05-10T02:05:16.721Z,100621.78
2023-05-10T02:08:07.319Z,100618.19
2023-05-10T02:10:40.719Z,100616.53
2023-05-10T02:13:09.403Z,100621.44
2023-05-10T02:15:38.157Z,100603.31
2023-05-10T02:18:07.125Z,100615.56
2023-05-10T02:20:36.121Z,100614.94
2023-05-10T02:23:04.445Z,100608.34
2023-05-10T02:25:32.655Z,100613.13
2023-05-10T02:28:11.801Z,100611.28
2023-05-10T02:31:25.858Z,100606.97
2023-05-10T02:33:58.295Z,100602.66
2023-05-10T02:36:28.816Z,100606.81
2023-05-10T02:39:02.814Z,100596.78
2023-05-10T02:41:33.492Z,100600.06
2023-05-10T02:44:03.806Z,100600.03
2023-05-10T02:46:42.588Z,100590.78
2023-05-10T02:49:09.568Z,100597.28
2023-05-10T02:51:42.107Z,100594.34
2023-05-10T02:54:13.765Z,100601.09
2023-05-10T02:56:48.673Z,100601.66
2023-05-10T02:59:15.582Z,100603.66
2023-05-10T03:01:44.720Z,100599.84
2023-05-10T03:04:11.837Z,100601.00
2023-05-10T03:06:38.998Z,100601.28
2023-05-10T03:09:13.325Z,100592.13
2023-05-10T03:12:10.183Z,100607.84
2023-05-10T03:14:48.995Z,100599.41
2023-05-10T03:17:40.031Z,100598.00
2023-05-10T03:20:17.556Z,100596.94
2023-05-10T03:22:48.166Z,100592.56
2023-05-10T03:25:17.677Z,100596.94
2023-05-10T03:27:46.209Z,100596.38
2023-05-10T03:30:14.077Z,100591.72
2023-05-10T03:32:40.945Z,100598.44
2023-05-10T03:35:09.650Z,100595.75
2023-05-10T03:37:36.954Z,100592.56
2023-05-10T03:40:04.675Z,100593.41
2023-05-10T03:42:31.589Z,100594.47
2023-05-10T03:44:58.255Z,100594.16
2023-05-10T03:47:24.969Z,100590.06
2023-05-10T03:49:51.657Z,100586.06
2023-05-10T03:52:18.256Z,100581.13
2023-05-10T03:54:44.918Z,100591.28
2023-05-10T03:57:11.544Z,100591.44
2023-05-10T03:59:38.178Z,100587.53
2023-05-10T04:02:04.830Z,100581.63
2023-05-10T04:04:31.463Z,100589.56
2023-05-10T04:06:58.121Z,100585.75
2023-05-10T04:09:25.081Z,100587.00
2023-05-10T04:11:51.705Z,100589.78
2023-05-10T04:14:18.456Z,100581.72
2023-05-10T04:16:45.062Z,100588.22
2023-05-10T04:19:11.987Z,100586.88
2023-05-10T04:21:38.580Z,100580.59
2023-05-10T04:24:05.354Z,100584.44
2023-05-10T04:26:32.358Z,100585.34
2023-05-10T04:28:58.962Z,100582.03
2023-05-10T04:31:25.718Z,100584.78
2023-05-10T04:33:52.527Z,100575.22
2023-05-10T04:36:19.272Z,100583.28
2023-05-10T04:38:45.881Z,100580.94
2023-05-10T04:41:12.741Z,100573.78
2023-05-10T04:43:39.741Z,100576.13
2023-05-10T04:46:07.015Z,100573.16
2023-05-10T04:48:33.812Z,100571.31
2023-05-10T04:51:00.732Z,100567.34
2023-05-10T04:53:27.376Z,100573.94
2023-05-10T04:55:54.043Z,100561.03
2023-05-10T04:58:20.673Z,100574.78
2023-05-10T05:00:47.281Z,100571.63
2023-05-10T05:03:14.113Z,100575.69
2023-05-10T05:05:40.764Z,100577.22
2023-05-10T05:08:07.347Z,100574.56
2023-05-10T05:10:33.985Z,100572.34
2023-05-10T05:13:00.812Z,100575.00
2023-05-10T05:15:27.515Z,100573.81
2023-05-10T05:17:54.714Z,100578.69
2023-05-10T05:20:21.495Z,100580.00
2023-05-10T05:22:48.122Z,100579.81
2023-05-10T05:25:16.077Z,100576.06
2023-05-10T05:27:42.781Z,100569.72
2023-05-10T05:30:09.846Z,100576.69
2023-05-10T05:32:36.525Z,100574.84
2023-05-10T05:35:03.376Z,100573.91
2023-05-10T05:37:30.126Z,100568.78
2023-05-10T05:39:56.807Z,100564.94
2023-05-10T05:42:23.636Z,100568.88
2023-05-10T05:44:50.335Z,100571.00
2023-05-10T05:47:17.018Z,100566.34
2023-05-10T05:49:43.705Z,100575.47
2023-05-10T05:52:10.266Z,100572.31
2023-05-10T05:54:36.877Z,100564.50
2023-05-10T05:57:03.708Z,100567.53
2023-05-10T05:59:30.540Z,100572.88
2023-05-10T06:01:57.111Z,100567.53
2023-05-10T06:04:23.935Z,100569.72
2023-05-10T06:06:50.577Z,100583.28
2023-05-10T06:09:17.215Z,100582.31
2023-05-10T06:11:43.998Z,100585.25
2023-05-10T06:14:10.742Z,100588.72
2023-05-10T06:16:37.530Z,100585.72
2023-05-10T06:19:04.138Z,100585.25
2023-05-10T06:21:31.201Z,100579.00
2023-05-10T06:23:57.961Z,100573.66
2023-05-10T06:26:24.627Z,100583.00
2023-05-10T06:28:51.269Z,100587.75
2023-05-10T06:31:18.196Z,100576.59
2023-05-10T06:33:44.785Z,100575.47
2023-05-10T06:36:11.393Z,100576.28
2023-05-10T06:38:38.287Z,100571.41
2023-05-10T06:41:04.901Z,100578.38
2023-05-10T06:43:31.496Z,100585.19
2023-05-10T06:45:58.578Z,100570.88
2023-05-10T06:48:25.318Z,100576.34
2023-05-10T06:50:51.988Z,100571.00
2023-05-10T06:53:18.811Z,100577.66
2023-05-10T06:55:45.405Z,100575.03
2023-05-10T06:58:12.138Z,100578.47
2023-05-10T07:00:41.695Z,100576.53
2023-05-10T07:03:08.538Z,100580.97
2023-05-10T07:05:35.600Z,100572.13
2023-05-10T07:08:02.628Z,100579.94
2023-05-10T07:10:29.387Z,100569.59
2023-05-10T07:12:56.061Z,100571.59
2023-05-10T07:15:22.992Z,100569.91
2023-05-10T07:17:49.750Z,100567.28
2023-05-10T07:20:16.666Z,100570.28
2023-05-10T07:22:43.337Z,100576.28
2023-05-10T07:25:10.165Z,100571.88
2023-05-10T07:27:36.917Z,100567.16
2023-05-10T07:30:03.696Z,100569.28
2023-05-10T07:32:30.366Z,100551.84
2023-05-10T07:34:57.067Z,100561.75
2023-05-10T07:37:23.725Z,100570.41
2023-05-10T07:39:50.321Z,100573.56
2023-05-10T07:42:16.937Z,100567.06
2023-05-10T07:44:44.316Z,100560.69
2023-05-10T07:47:10.897Z,100569.56
2023-05-10T07:49:37.498Z,100573.75
2023-05-10T07:52:04.578Z,100577.78
2023-05-10T07:54:31.168Z,100572.22
2023-05-10T07:56:57.728Z,100567.06
2023-05-10T07:59:24.346Z,100576.53
2023-05-10T08:01:50.937Z,100579.38
2023-05-10T08:04:17.641Z,100579.59
2023-05-10T08:06:44.307Z,100581.97
2023-05-10T08:09:11.911Z,100564.69
2023-05-10T08:11:38.505Z,100571.75
2023-05-10T08:14:05.213Z,100578.03
2023-05-10T08:16:31.962Z,100579.16
2023-05-10T08:18:58.613Z,100582.72
2023-05-10T08:21:25.280Z,100569.41
2023-05-10T08:23:51.964Z,100575.84
2023-05-10T08:26:18.539Z,100582.94
2023-05-10T08:28:45.229Z,100586.72
2023-05-10T08:31:13.088Z,100577.50
2023-05-10T08:33:41.438Z,100585.84
2023-05-10T08:36:09.087Z,100584.47
2023-05-10T08:38:35.789Z,100584.19
2023-05-10T08:41:03.617Z,100582.34
2023-05-10T08:43:31.408Z,100590.94
2023-05-10T08:46:03.969Z,100582.03
2023-05-10T08:48:31.872Z,100592.50
2023-05-10T08:51:00.996Z,100587.69
2023-05-10T08:53:30.049Z,100588.03
2023-05-10T08:55:56.858Z,100590.50
2023-05-10T08:58:23.664Z,100582.38
2023-05-10T09:00:53.599Z,100584.03
2023-05-10T09:03:20.375Z,100591.13
2023-05-10T09:05:47.496Z,100589.66
2023-05-10T09:08:17.308Z,100587.81
2023-05-10T09:10:45.716Z,100582.38
2023-05-10T09:13:12.939Z,100589.78
2023-05-10T09:15:40.095Z,100592.22
2023-05-10T09:18:06.932Z,100587.31
2023-05-10T09:20:33.774Z,100588.34
2023-05-10T09:23:00.570Z,100594.56
2023-05-10T09:25:27.248Z,100591.31
2023-05-10T09:27:54.102Z,100591.38
2023-05-10T09:30:29.305Z,100582.63
2023-05-10T09:32:57.025Z,100591.91
2023-05-10T09:35:28.813Z,100603.34
2023-05-10T09:37:58.507Z,100597.03
2023-05-10T09:40:26.890Z,100593.81
2023-05-10T09:43:03.491Z,100595.41
2023-05-10T09:45:31.941Z,100595.22
2023-05-10T09:48:00.165Z,100587.69
2023-05-10T09:50:27.786Z,100595.50
2023-05-10T09:53:00.149Z,100598.25
2023-05-10T09:55:39.465Z,100592.53
2023-05-10T09:58:11.118Z,100589.72
2023-05-10T10:00:38.362Z,100594.94
2023-05-10T10:03:05.651Z,100592.41
2023-05-10T10:05:36.663Z,100594.91
2023-05-10T10:08:06.595Z,100593.28
2023-05-10T10:10:34.677Z,100601.94
2023-05-10T10:13:02.732Z,100595.78
2023-05-10T10:15:29.374Z,100599.91
2023-05-10T10:17:55.994Z,100596.53
2023-05-10T10:20:23.927Z,100599.94
2023-05-10T10:22:50.779Z,100599.91
2023-05-10T10:25:19.359Z,100590.69
2023-05-10T10:27:58.060Z,100592.94
2023-05-10T10:30:52.345Z,100594.81
2023-05-10T10:33:58.135Z,100588.38
2023-05-10T10:36:24.875Z,100591.69
2023-05-10T10:39:03.855Z,100586.09
2023-05-10T10:41:37.889Z,100598.31
2023-05-10T10:44:26.109Z,100581.59
2023-05-10T10:47:25.642Z,100585.72
2023-05-10T10:50:04.550Z,100594.81
2023-05-10T10:52:36.361Z,100579.28
2023-05-10T10:55:11.494Z,100574.84
2023-05-10T10:57:41.160Z,100577.38
2023-05-10T11:00:21.060Z,100579.72
2023-05-10T11:02:52.811Z,100594.19
2023-05-10T11:05:28.473Z,100580.69
2023-05-10T11:08:00.808Z,100576.25
2023-05-10T11:10:30.975Z,100582.88
2023-05-10T11:13:10.954Z,100585.00
2023-05-10T11:15:49.957Z,100572.66
2023-05-10T11:18:21.950Z,100565.41
2023-05-10T11:21:14.434Z,100570.63
2023-05-10T11:23:54.289Z,100577.63
2023-05-10T11:26:24.770Z,100573.78
2023-05-10T11:28:58.275Z,100578.34
2023-05-10T11:31:27.806Z,100571.38
2023-05-10T11:33:59.924Z,100571.94
2023-05-10T11:36:29.442Z,100572.91
2023-05-10T11:38:59.734Z,100573.19
2023-05-10T11:41:30.748Z,100568.03
2023-05-10T11:43:59.242Z,100568.66
2023-05-10T11:46:30.162Z,100568.31
2023-05-10T11:49:03.048Z,100574.50
2023-05-10T11:51:35.892Z,100569.31
2023-05-10T11:54:07.446Z,100566.28
2023-05-10T11:56:34.340Z,100568.28
2023-05-10T11:59:02.839Z,100570.44
2023-05-10T12:01:29.975Z,100571.91
2023-05-10T12:04:00.649Z,100564.19
2023-05-10T12:06:29.979Z,100567.41
2023-05-10T12:08:59.453Z,100575.84
2023-05-10T12:11:28.316Z,100564.53
2023-05-10T12:14:03.967Z,100575.53
2023-05-10T12:16:31.237Z,100572.13
2023-05-10T12:18:59.428Z,100567.66
2023-05-10T12:21:26.845Z,100576.75
2023-05-10T12:23:56.607Z,100572.38
2023-05-10T12:26:24.241Z,100579.13
2023-05-10T12:28:52.270Z,100582.75
2023-05-10T12:31:19.628Z,100579.25
2023-05-10T12:33:50.552Z,100573.47
2023-05-10T12:39:07.399Z,100585.50
2023-05-10T12:41:43.610Z,100581.72
2023-05-10T12:44:10.517Z,100575.72
2023-05-10T12:46:37.826Z,100581.66
2023-05-10T12:49:09.360Z,100584.97
2023-05-10T12:51:36.461Z,100592.78
2023-05-10T12:54:04.265Z,100590.13
2023-05-10T12:56:31.096Z,100587.09
2023-05-10T12:58:57.699Z,100589.56
2023-05-10T13:01:34.801Z,100581.03
2023-05-10T13:04:01.627Z,100576.56
2023-05-10T13:06:28.317Z,100588.03
2023-05-10T13:08:54.960Z,100584.03
2023-05-10T13:11:22.762Z,100589.97
2023-05-10T13:13:50.720Z,100585.78
2023-05-10T13:16:17.538Z,100584.47
2023-05-10T13:18:44.384Z,100584.06
2023-05-10T13:23:58.007Z,100589.31
2023-05-10T13:26:25.148Z,100586.00
2023-05-10T13:28:52.886Z,100588.72
2023-05-10T13:31:20.014Z,100580.16
2023-05-10T13:33:54.452Z,100576.19
2023-05-10T13:36:21.587Z,100578.56
2023-05-10T13:38:48.334Z,100572.13
2023-05-10T13:41:15.265Z,100569.09
2023-05-10T13:43:42.001Z,100571.06
2023-05-10T13:46:08.835Z,100567.44
2023-05-10T13:48:38.140Z,100570.00
2023-05-10T13:51:05.530Z,100560.97
2023-05-10T13:53:32.246Z,100570.88
2023-05-10T13:55:59.150Z,100583.19
2023-05-10T13:58:25.769Z,100571.03
2023-05-10T14:00:52.429Z,100574.47
2023-05-10T14:03:19.130Z,100569.50
2023-05-10T14:05:46.392Z,100568.25
2023-05-10T14:08:14.243Z,100566.06
2023-05-10T14:10:40.969Z,100563.00
2023-05-10T14:13:07.671Z,100559.06
2023-05-10T14:15:34.302Z,100560.13
2023-05-10T14:18:01.546Z,100566.88
2023-05-10T14:20:28.261Z,100560.81
2023-05-10T14:22:54.826Z,100567.09
2023-05-10T14:25:21.783Z,100565.03
2023-05-10T14:27:48.857Z,100562.94
2023-05-10T14:30:16.127Z,100556.72
2023-05-10T14:32:43.045Z,100553.59
2023-05-10T14:35:12.818Z,100556.50
2023-05-10T14:37:40.196Z,100554.81
2023-05-10T14:40:08.495Z,100558.41
2023-05-10T14:42:42.712Z,100559.69
2023-05-10T14:45:10.120Z,100548.63
2023-05-10T14:47:42.983Z,100560.84
2023-05-10T14:50:21.477Z,100551.97
2023-05-10T14:53:00.602Z,100554.06
2023-05-10T14:55:27.642Z,100557.44
2023-05-10T14:58:05.870Z,100559.34
2023-05-10T15:00:32.504Z,100560.56
2023-05-10T15:03:10.421Z,100566.63
2023-05-10T15:05:42.427Z,100569.22
2023-05-10T15:08:10.645Z,100565.44
2023-05-10T15:10:37.970Z,100567.63
2023-05-10T15:13:05.375Z,100569.03
2023-05-10T15:15:32.458Z,100569.41
2023-05-10T15:17:59.316Z,100572.09
2023-05-10T15:20:26.036Z,100562.78
2023-05-10T15:22:52.798Z,100571.38
2023-05-10T15:25:19.661Z,100568.38
2023-05-10T15:27:46.468Z,100575.78
2023-05-10T15:30:13.483Z,100572.25
2023-05-10T15:32:41.226Z,100570.34
2023-05-10T15:35:10.558Z,100574.72
2023-05-10T15:37:42.468Z,100574.66
2023-05-10T15:40:09.571Z,100572.09
2023-05-10T15:42:36.765Z,100574.56
2023-05-10T15:45:03.834Z,100578.00
2023-05-10T15:47:31.561Z,100567.69
2023-05-10T15:49:58.446Z,100578.59
2023-05-10T15:52:25.221Z,100585.00
2023-05-10T15:54:52.425Z,100587.84
2023-05-10T15:57:42.724Z,100585.72
2023-05-10T16:00:13.398Z,100593.16
2023-05-10T16:02:41.484Z,100591.16
2023-05-10T16:05:09.789Z,100589.13
2023-05-10T16:07:36.954Z,100588.25
2023-05-10T16:10:11.300Z,100591.19
2023-05-10T16:12:38.536Z,100593.16
2023-05-10T16:15:06.846Z,100591.88
2023-05-10T16:17:33.727Z,100600.25
2023-05-10T16:20:01.437Z,100608.50
2023-05-10T16:22:29.225Z,100603.34
2023-05-10T16:24:57.433Z,100598.47
2023-05-10T16:27:24.471Z,100610.53
2023-05-10T16:29:51.250Z,100611.59
2023-05-10T16:32:18.193Z,100607.22
2023-05-10T16:34:45.095Z,100615.59
2023-05-10T16:37:11.978Z,100618.69
2023-05-10T16:39:39.009Z,100619.03
2023-05-10T16:42:06.353Z,100622.81
2023-05-10T16:44:33.883Z,100629.19
2023-05-10T16:47:00.818Z,100632.13
2023-05-10T16:49:27.506Z,100639.59
2023-05-10T16:51:54.777Z,100638.03
2023-05-10T16:54:22.131Z,100641.41
2023-05-10T16:56:49.052Z,100633.97
2023-05-10T16:59:16.492Z,100636.78
2023-05-10T17:01:43.641Z,100643.31
2023-05-10T17:04:10.448Z,100636.88
2023-05-10T17:06:37.765Z,100642.84
2023-05-10T17:09:06.217Z,100643.03
2023-05-10T17:11:34.423Z,100653.41
2023-05-10T17:14:01.860Z,100659.41
2023-05-10T17:16:29.904Z,100650.09
2023-05-10T17:18:56.830Z,100655.22
2023-05-10T17:21:23.974Z,100663.84
2023-05-10T17:23:51.432Z,100656.66
2023-05-10T17:26:18.322Z,100657.50
2023-05-10T17:28:45.084Z,100662.19
2023-05-10T17:31:12.249Z,100666.94
2023-05-10T17:33:39.427Z,100671.28
2023-05-10T17:36:06.533Z,100663.59
2023-05-10T17:38:33.476Z,100673.25
2023-05-10T17:41:00.460Z,100677.16
2023-05-10T17:43:27.093Z,100680.97
2023-05-10T17:45:53.821Z,100676.59
2023-05-10T17:48:20.898Z,100679.09
2023-05-10T17:50:50.573Z,100685.66
2023-05-10T17:53:17.450Z,100686.03
2023-05-10T17:55:44.184Z,100686.44
2023-05-10T17:58:12.432Z,100693.19
2023-05-10T18:00:39.657Z,100691.00
2023-05-10T18:03:06.307Z,100695.63
2023-05-10T18:05:37.506Z,100693.28
2023-05-10T18:08:05.231Z,100695.66
2023-05-10T18:10:32.334Z,100701.03
2023-05-10T18:12:59.428Z,100701.84
2023-05-10T18:15:27.872Z,100700.78
2023-05-10T18:17:56.256Z,100699.03
2023-05-10T18:20:23.464Z,100708.50
2023-05-10T18:22:50.420Z,100710.56
2023-05-10T18:25:17.524Z,100705.16
2023-05-10T18:27:44.472Z,100709.19
2023-05-10T18:30:12.632Z,100711.81
2023-05-10T18:32:39.909Z,100714.38
2023-05-10T18:35:08.683Z,100719.88
2023-05-10T18:37:36.448Z,100721.19
2023-05-10T18:40:05.121Z,100728.34
2023-05-10T18:42:32.020Z,100724.06
2023-05-10T18:44:58.752Z,100735.66
2023-05-10T18:47:26.788Z,100730.50
2023-05-10T18:49:53.629Z,100745.72
2023-05-10T18:52:20.461Z,100741.97
2023-05-10T18:54:47.161Z,100741.16
2023-05-10T18:57:13.952Z,100741.47
2023-05-10T18:59:41.068Z,100743.97
2023-05-10T19:02:08.395Z,100751.88
2023-05-10T19:04:35.216Z,100752.28
2023-05-10T19:07:03.164Z,100760.22
2023-05-10T19:09:29.858Z,100758.28
2023-05-10T19:11:56.909Z,100759.47
2023-05-10T19:14:25.458Z,100762.25
2023-05-10T19:16:53.135Z,100770.47
2023-05-10T19:19:20.594Z,100760.56
2023-05-10T19:21:48.369Z,100766.81
2023-05-10T19:24:15.150Z,100777.53
2023-05-10T19:26:41.995Z,100776.38
2023-05-10T19:29:09.480Z,100782.50
2023-05-10T19:31:36.173Z,100781.94
2023-05-10T19:34:04.203Z,100783.06
2023-05-10T19:36:33.316Z,100772.75
2023-05-10T19:39:00.122Z,100784.00
2023-05-10T19:41:26.962Z,100780.22
2023-05-10T19:43:54.009Z,100784.53
2023-05-10T19:46:20.774Z,100786.91
2023-05-10T19:48:48.686Z,100793.00
2023-05-10T19:51:16.787Z,100791.50
2023-05-10T19:53:45.113Z,100798.72
2023-05-10T19:56:13.170Z,100797.44
2023-05-10T19:58:40.013Z,100806.69
2023-05-10T20:01:07.965Z,100799.19
2023-05-10T20:03:36.013Z,100803.22
2023-05-10T20:06:04.088Z,100812.34
2023-05-10T20:08:31.527Z,100810.22
2023-05-10T20:10:59.185Z,100794.34
2023-05-10T20:13:26.331Z,100803.94
2023-05-10T20:15:57.934Z,100812.22
2023-05-10T20:18:24.956Z,100811.53
2023-05-10T20:20:56.320Z,100815.16
2023-05-10T20:23:23.426Z,100808.06
2023-05-10T20:25:50.344Z,100817.06
2023-05-10T20:28:23.074Z,100814.41
2023-05-10T20:30:53.435Z,100814.28
2023-05-10T20:33:20.835Z,100815.97
2023-05-10T20:35:47.581Z,100818.16
2023-05-10T20:38:14.445Z,100821.63
2023-05-10T20:40:41.691Z,100821.63
2023-05-10T20:43:08.441Z,100819.97
2023-05-10T20:45:37.577Z,100821.00
2023-05-10T20:48:05.260Z,100817.63
2023-05-10T20:50:32.178Z,100814.56
2023-05-10T20:53:00.662Z,100816.34
2023-05-10T20:55:28.251Z,100828.59
2023-05-10T20:57:55.152Z,100831.22
2023-05-10T21:00:22.042Z,100827.03
2023-05-10T21:02:48.900Z,100822.59
2023-05-10T21:05:16.804Z,100819.41
2023-05-10T21:07:43.459Z,100820.69
2023-05-10T21:10:11.718Z,100825.13
2023-05-10T21:12:38.768Z,100825.13
2023-05-10T21:15:05.929Z,100833.63
2023-05-10T21:17:33.333Z,100832.75
2023-05-10T21:20:00.092Z,100835.38
2023-05-10T21:22:26.924Z,100825.69
2023-05-10T21:24:53.762Z,100830.97
2023-05-10T21:27:20.624Z,100832.75
2023-05-10T21:29:47.209Z,100833.47
2023-05-10T21:32:14.985Z,100833.34
2023-05-10T21:34:41.873Z,100832.25
2023-05-10T21:37:08.509Z,100836.81
2023-05-10T21:39:35.130Z,100825.41
2023-05-10T21:42:01.791Z,100831.56
2023-05-10T21:44:28.408Z,100828.78
2023-05-10T21:46:56.087Z,100831.56
2023-05-10T21:49:22.704Z,100830.56
2023-05-10T21:51:49.389Z,100831.69
2023-05-10T21:54:15.993Z,100838.59
2023-05-10T21:56:42.592Z,100836.81
2023-05-10T21:59:09.221Z,100837.19
2023-05-10T22:01:35.926Z,100831.34
2023-05-10T22:04:02.544Z,100840.38
2023-05-10T22:06:29.157Z,100844.09
2023-05-10T22:08:55.822Z,100834.63
2023-05-10T22:11:23.248Z,100832.97
2023-05-10T22:13:49.865Z,100840.03
2023-05-10T22:16:16.485Z,100842.94
2023-05-10T22:18:43.751Z,100839.47
2023-05-10T22:21:10.583Z,100842.09
2023-05-10T22:23:37.206Z,100845.69
2023-05-10T22:26:04.347Z,100846.91
2023-05-10T22:28:31.003Z,100847.03
2023-05-10T22:30:57.610Z,100848.84
2023-05-10T22:33:24.292Z,100846.47
2023-05-10T22:35:50.907Z,100838.88
2023-05-10T22:38:17.583Z,100844.28
2023-05-10T22:40:44.188Z,100844.44
2023-05-10T22:43:10.947Z,100847.31
2023-05-10T22:45:37.634Z,100851.19
2023-05-10T22:48:05.330Z,100850.59
2023-05-10T22:50:32.047Z,100852.75
2023-05-10T22:52:58.628Z,100850.03
2023-05-10T22:55:25.296Z,100852.31
2023-05-10T22:57:52.401Z,100850.44
2023-05-10T23:00:19.688Z,100849.00
2023-05-10T23:02:46.724Z,100853.09
2023-05-10T23:05:13.757Z,100854.78
2023-05-10T23:07:40.599Z,100854.56
2023-05-10T23:10:07.730Z,100862.47
2023-05-10T23:12:34.716Z,100852.69
2023-05-10T23:15:01.401Z,100859.38
2023-05-10T23:17:28.379Z,100861.75
2023-05-10T23:19:55.036Z,100861.50
2023-05-10T23:22:21.872Z,100860.38
2023-05-10T23:24:48.450Z,100858.34
2023-05-10T23:27:15.102Z,100856.66
2023-05-10T23:29:41.742Z,100862.41
2023-05-10T23:32:08.399Z,100862.13
2023-05-10T23:34:35.048Z,100860.94
2023-05-10T23:37:02.062Z,100861.63
2023-05-10T23:39:28.667Z,100859.44
2023-05-10T23:41:55.572Z,100859.91
2023-05-10T23:44:22.171Z,100855.09
2023-05-10T23:46:48.765Z,100852.81
2023-05-10T23:49:15.378Z,100864.75
2023-05-10T23:51:41.971Z,100854.66
2023-05-10T23:54:08.766Z,100854.25
2023-05-10T23:56:35.336Z,100861.63
2023-05-10T23:59:01.954Z,100856.03
